Time;durP1;ratioP1;P1;durP2;ratioP2;P2;SDS_P1;SDS_P2;PMS_P1;PMS_P2;Temp;Humidity;BMP_temperature;BMP_pressure;BME280_temperature;BME280_humidity;BME280_pressure;Samples;Min_cycle;Max_cycle;Signal;HPM_P1;HPM_P2
2022/03/31 00:00:34;;;;;;;21.27;10.60;;;15.10;56.70;;;;;;5111247;27;20114;-70
2022/03/31 00:03:01;;;;;;;22.77;11.25;;;15.10;56.80;;;;;;5134541;27;20042;-70
2022/03/31 00:05:27;;;;;;;25.95;11.98;;;15.10;56.90;;;;;;5136105;27;20151;-70
2022/03/31 00:07:55;;;;;;;28.13;12.63;;;15.10;56.90;;;;;;5113965;28;20111;-70
2022/03/31 00:10:29;;;;;;;26.88;10.95;;;15.10;56.90;;;;;;5131321;27;20164;-70
2022/03/31 00:12:57;;;;;;;23.42;10.60;;;15.10;56.70;;;;;;5116901;27;20121;-70
2022/03/31 00:15:24;;;;;;;27.33;11.18;;;15.10;56.70;;;;;;5133455;27;20104;-70
2022/03/31 00:17:50;;;;;;;22.83;11.77;;;15.10;56.70;;;;;;5135817;27;20068;-70
2022/03/31 00:20:16;;;;;;;23.55;11.68;;;15.00;56.80;;;;;;5135254;27;20023;-70
2022/03/31 00:22:42;;;;;;;19.60;10.65;;;15.00;56.80;;;;;;5117027;27;20027;-70
2022/03/31 00:25:10;;;;;;;32.97;14.02;;;15.00;56.80;;;;;;5120062;27;20024;-71
2022/03/31 00:27:37;;;;;;;29.95;12.40;;;15.00;56.90;;;;;;5115328;28;20030;-70
2022/03/31 00:30:05;;;;;;;27.25;11.60;;;15.00;56.90;;;;;;5113786;28;20425;-70
2022/03/31 00:32:32;;;;;;;29.70;11.98;;;15.00;56.80;;;;;;5123346;27;20030;-69
2022/03/31 00:34:58;;;;;;;22.70;11.38;;;14.90;56.70;;;;;;5114701;27;20420;-70
2022/03/31 00:37:24;;;;;;;25.15;11.63;;;14.90;56.50;;;;;;5135247;27;20023;-70
2022/03/31 00:39:50;;;;;;;30.20;12.65;;;14.90;56.50;;;;;;5116501;27;20063;-70
2022/03/31 00:42:16;;;;;;;23.70;12.43;;;14.90;56.50;;;;;;5135382;27;20459;-70
2022/03/31 00:44:45;;;;;;;23.30;12.50;;;14.90;56.50;;;;;;5116852;27;20035;-70
2022/03/31 00:47:11;;;;;;;25.15;12.50;;;14.80;56.60;;;;;;5135047;27;20378;-69
2022/03/31 00:49:36;;;;;;;23.65;11.65;;;14.70;56.50;;;;;;5116712;27;20473;-70
2022/03/31 00:52:02;;;;;;;20.98;12.07;;;14.70;56.50;;;;;;5110379;27;20061;-70
2022/03/31 00:54:29;;;;;;;22.67;12.80;;;14.60;56.50;;;;;;5116594;27;20098;-69
2022/03/31 00:56:57;;;;;;;27.40;11.55;;;14.50;56.80;;;;;;5134765;27;20031;-70
2022/03/31 00:59:22;;;;;;;17.38;11.27;;;14.40;56.70;;;;;;5116349;27;20084;-69
2022/03/31 01:01:48;;;;;;;28.33;12.38;;;14.40;56.80;;;;;;5127632;27;20027;-70
2022/03/31 01:04:15;;;;;;;22.98;12.02;;;14.30;57.00;;;;;;5129126;27;20023;-70
2022/03/31 01:06:44;;;;;;;24.30;11.77;;;14.30;57.10;;;;;;5116318;27;20031;-70
2022/03/31 01:09:12;;;;;;;20.25;11.13;;;14.20;57.00;;;;;;5116450;27;20369;-69
2022/03/31 01:11:38;;;;;;;27.27;11.43;;;14.10;57.00;;;;;;5134137;27;20031;-69
2022/03/31 01:14:06;;;;;;;23.05;10.40;;;14.10;57.20;;;;;;5134002;27;20027;-70
2022/03/31 01:16:33;;;;;;;18.60;10.85;;;14.00;57.10;;;;;;5115745;27;20030;-70
2022/03/31 01:19:03;;;;;;;22.90;11.40;;;14.00;57.20;;;;;;5134119;27;20019;-70
2022/03/31 01:21:29;;;;;;;20.25;10.95;;;13.90;57.50;;;;;;5116012;27;20030;-70
2022/03/31 01:23:56;;;;;;;23.95;11.32;;;13.90;57.50;;;;;;5134262;27;20423;-70
2022/03/31 01:26:22;;;;;;;23.45;12.15;;;13.80;57.60;;;;;;5115946;27;20034;-70
2022/03/31 01:28:47;;;;;;;21.02;10.48;;;13.80;57.90;;;;;;5109368;27;20390;-70
2022/03/31 01:31:13;;;;;;;27.35;11.40;;;13.80;57.90;;;;;;5133017;27;20027;-70
2022/03/31 01:33:41;;;;;;;24.55;12.05;;;13.80;58.60;;;;;;5115579;27;20027;-70
2022/03/31 01:36:07;;;;;;;21.98;12.40;;;13.80;58.30;;;;;;5133895;27;20446;-70
2022/03/31 01:38:34;;;;;;;31.77;13.20;;;13.80;58.50;;;;;;5133663;27;20110;-70
2022/03/31 01:41:00;;;;;;;22.65;12.35;;;13.80;58.60;;;;;;5133604;27;20362;-70
2022/03/31 01:43:26;;;;;;;18.25;11.43;;;13.80;58.60;;;;;;5115879;27;20100;-69
2022/03/31 01:45:53;;;;;;;24.42;11.73;;;13.80;58.60;;;;;;5133905;27;20027;-70
2022/03/31 01:48:21;;;;;;;22.40;13.07;;;13.80;58.70;;;;;;5115407;27;20027;-69
2022/03/31 01:50:47;;;;;;;27.65;12.00;;;13.80;58.90;;;;;;5118752;27;20378;-69
2022/03/31 01:53:18;;;;;;;27.92;13.63;;;13.80;58.90;;;;;;5113501;28;20108;-70
2022/03/31 01:55:44;;;;;;;31.88;14.82;;;13.90;59.40;;;;;;5128970;27;20027;-70
2022/03/31 01:58:10;;;;;;;26.80;13.75;;;13.90;59.50;;;;;;5131254;27;20473;-70
2022/03/31 02:00:36;;;;;;;24.20;12.43;;;13.90;59.60;;;;;;5112856;28;20050;-70
2022/03/31 02:03:02;;;;;;;25.58;12.23;;;13.90;59.60;;;;;;5120997;27;20167;-69
2022/03/31 02:05:27;;;;;;;23.13;13.20;;;14.00;59.40;;;;;;5115322;28;20114;-70
2022/03/31 02:07:56;;;;;;;21.58;11.65;;;14.00;59.30;;;;;;5114978;28;20027;-70
2022/03/31 02:10:25;;;;;;;24.42;11.82;;;14.00;59.30;;;;;;5115270;28;20067;-69
2022/03/31 02:12:51;;;;;;;23.42;12.60;;;14.10;59.20;;;;;;5115355;28;20034;-70
2022/03/31 02:15:20;;;;;;;23.27;11.82;;;14.20;59.30;;;;;;5115009;28;20019;-70
2022/03/31 02:17:46;;;;;;;20.92;12.07;;;14.20;59.20;;;;;;5115262;28;20027;-69
2022/03/31 02:20:12;;;;;;;27.23;12.02;;;14.20;59.10;;;;;;5133965;28;20138;-70
2022/03/31 02:22:39;;;;;;;27.63;13.05;;;14.30;59.10;;;;;;5130256;28;20095;-70
2022/03/31 02:25:08;;;;;;;29.25;13.70;;;14.30;59.10;;;;;;5125030;28;20023;-70
2022/03/31 02:27:38;;;;;;;18.23;11.32;;;14.30;59.10;;;;;;5128081;27;20042;-70
2022/03/31 02:30:06;;;;;;;29.58;13.30;;;14.30;58.90;;;;;;5119331;27;20032;-70
2022/03/31 02:32:32;;;;;;;27.63;13.80;;;14.30;58.80;;;;;;5114121;28;20026;-71
2022/03/31 02:34:58;;;;;;;21.80;12.13;;;14.30;58.90;;;;;;5134443;27;20491;-70
2022/03/31 02:37:25;;;;;;;21.13;11.73;;;14.20;58.80;;;;;;5137106;27;20106;-70
2022/03/31 02:39:51;;;;;;;19.70;13.02;;;14.20;58.60;;;;;;5137252;27;20420;-70
2022/03/31 02:42:17;;;;;;;23.15;12.48;;;14.20;58.70;;;;;;5119095;27;20031;-70
2022/03/31 02:44:44;;;;;;;32.05;15.60;;;14.10;58.70;;;;;;5118511;27;20080;-69
2022/03/31 02:47:10;;;;;;;23.42;13.85;;;14.10;59.00;;;;;;5116279;27;20467;-70
2022/03/31 02:49:36;;;;;;;22.15;11.77;;;14.00;58.80;;;;;;5113420;27;20028;-70
2022/03/31 02:52:03;;;;;;;18.58;12.10;;;14.00;58.70;;;;;;5121934;27;20092;-70
2022/03/31 02:57:13;;;;;;;21.98;12.82;;;13.90;58.70;;;;;;5137675;27;20389;-70
2022/03/31 02:59:39;;;;;;;26.25;14.00;;;13.90;58.80;;;;;;5137475;27;20027;-69
2022/03/31 03:02:06;;;;;;;28.80;14.13;;;13.80;59.10;;;;;;5136042;27;20042;-69
2022/03/31 03:04:32;;;;;;;18.88;11.73;;;13.80;59.20;;;;;;5118826;27;20127;-69
2022/03/31 03:06:58;;;;;;;21.13;12.02;;;13.80;59.10;;;;;;5137028;27;20020;-70
2022/03/31 03:09:24;;;;;;;22.35;13.45;;;13.80;59.00;;;;;;5130839;27;20023;-69
2022/03/31 03:11:50;;;;;;;22.50;13.85;;;13.80;58.90;;;;;;5116016;27;20079;-70
2022/03/31 03:14:16;;;;;;;22.23;12.90;;;13.80;58.90;;;;;;5137224;27;20031;-69
2022/03/31 03:16:42;;;;;;;23.80;13.23;;;13.80;59.10;;;;;;5118403;27;20027;-70
2022/03/31 03:19:08;;;;;;;21.48;12.40;;;13.80;59.10;;;;;;5118274;27;20063;-70
2022/03/31 03:21:34;;;;;;;21.13;12.20;;;13.80;59.20;;;;;;5130264;27;20116;-70
2022/03/31 03:24:04;;;;;;;21.33;11.75;;;13.80;59.20;;;;;;5129538;27;20434;-70
2022/03/31 03:26:30;;;;;;;19.42;11.70;;;13.80;59.10;;;;;;5118319;27;20120;-70
2022/03/31 03:28:56;;;;;;;22.15;12.60;;;13.80;59.00;;;;;;5118037;27;20050;-70
2022/03/31 03:31:22;;;;;;;27.55;13.40;;;13.80;59.10;;;;;;5119333;27;20023;-70
2022/03/31 03:33:48;;;;;;;24.70;14.73;;;13.80;59.20;;;;;;5135914;27;20030;-70
2022/03/31 03:36:17;;;;;;;29.13;14.68;;;13.80;59.60;;;;;;5136928;27;20027;-69
2022/03/31 03:38:43;;;;;;;25.52;13.70;;;13.80;59.70;;;;;;5135427;27;20051;-70
2022/03/31 03:41:11;;;;;;;27.20;13.77;;;13.80;59.70;;;;;;5136856;27;20023;-69
2022/03/31 03:43:38;;;;;;;27.65;14.13;;;13.80;59.80;;;;;;5126825;27;20039;-70
2022/03/31 03:46:04;;;;;;;22.35;11.95;;;13.80;59.80;;;;;;5097427;28;20024;-71
2022/03/31 03:48:30;;;;;;;25.48;11.95;;;13.90;59.70;;;;;;5097582;28;20031;-70
2022/03/31 03:50:56;;;;;;;17.92;11.38;;;13.90;59.60;;;;;;5115077;28;20027;-70
2022/03/31 03:53:22;;;;;;;23.70;13.02;;;13.90;59.60;;;;;;5115626;28;20038;-70
2022/03/31 03:55:47;;;;;;;21.17;11.85;;;14.00;59.60;;;;;;5097417;28;20032;-70
2022/03/31 03:58:13;;;;;;;23.15;12.13;;;14.00;59.50;;;;;;5130543;27;20046;-70
2022/03/31 04:00:39;;;;;;;24.50;14.18;;;14.00;59.40;;;;;;5113567;27;20024;-70
2022/03/31 04:03:05;;;;;;;30.48;14.10;;;14.00;59.40;;;;;;5108680;28;20040;-70
2022/03/31 04:05:31;;;;;;;30.60;14.35;;;14.10;59.50;;;;;;5096968;28;20028;-70
2022/03/31 04:07:57;;;;;;;23.08;12.65;;;14.10;59.30;;;;;;5115576;28;20020;-69
2022/03/31 04:10:23;;;;;;;22.38;13.02;;;14.10;59.30;;;;;;5115165;28;20451;-70
2022/03/31 04:12:49;;;;;;;26.15;13.52;;;14.10;59.20;;;;;;5115133;28;20429;-70
2022/03/31 04:15:15;;;;;;;23.27;13.50;;;14.10;59.20;;;;;;5115356;28;20027;-70
2022/03/31 04:17:42;;;;;;;24.67;13.63;;;14.10;59.10;;;;;;5096988;28;20032;-70
2022/03/31 04:20:10;;;;;;;17.67;12.05;;;14.10;59.10;;;;;;5115326;28;20054;-69
2022/03/31 04:22:37;;;;;;;27.90;14.68;;;14.10;59.10;;;;;;5114856;28;20028;-69
2022/03/31 04:25:08;;;;;;;21.77;14.02;;;14.10;59.20;;;;;;5115110;28;20028;-70
2022/03/31 04:27:35;;;;;;;19.95;13.40;;;14.10;59.10;;;;;;5097376;28;20442;-70
2022/03/31 04:30:10;;;;;;;24.50;13.77;;;14.10;59.10;;;;;;5114806;28;20031;-70
2022/03/31 04:32:37;;;;;;;24.10;12.93;;;14.10;59.10;;;;;;5100560;28;20027;-70
2022/03/31 04:35:04;;;;;;;22.42;12.13;;;14.10;58.90;;;;;;5094059;28;20039;-70
2022/03/31 04:37:29;;;;;;;20.52;12.48;;;14.00;58.90;;;;;;5100321;27;20028;-69
2022/03/31 04:39:55;;;;;;;23.25;13.48;;;14.00;59.00;;;;;;5135349;27;20074;-70
2022/03/31 04:42:21;;;;;;;20.70;12.02;;;14.00;59.00;;;;;;5133514;27;20031;-70
2022/03/31 04:44:47;;;;;;;25.20;12.82;;;14.00;59.00;;;;;;5096831;28;20042;-70
2022/03/31 04:47:13;;;;;;;20.08;12.02;;;14.00;59.00;;;;;;5114674;28;20032;-69
2022/03/31 04:49:39;;;;;;;23.02;12.95;;;14.00;59.00;;;;;;5095466;28;20374;-69
2022/03/31 04:52:05;;;;;;;21.25;11.48;;;14.10;59.10;;;;;;5109750;28;20497;-68
2022/03/31 04:54:31;;;;;;;22.90;11.18;;;14.10;59.10;;;;;;5114286;28;20039;-69
2022/03/31 04:56:57;;;;;;;23.00;12.02;;;14.10;59.10;;;;;;5114118;28;20020;-68
2022/03/31 04:59:23;;;;;;;26.67;13.02;;;14.10;59.10;;;;;;5113901;28;20373;-69
2022/03/31 05:01:49;;;;;;;26.02;13.63;;;14.20;59.30;;;;;;5087405;28;20044;-69
2022/03/31 05:04:16;;;;;;;22.65;13.90;;;14.20;59.20;;;;;;5095253;28;20187;-69
2022/03/31 05:06:41;;;;;;;22.85;12.40;;;14.20;59.10;;;;;;5096296;28;20032;-69
2022/03/31 05:09:07;;;;;;;20.38;13.45;;;14.30;59.10;;;;;;5096033;28;20108;-69
2022/03/31 05:11:34;;;;;;;24.92;12.40;;;14.30;59.10;;;;;;5114032;28;20031;-69
2022/03/31 05:13:59;;;;;;;29.38;12.50;;;14.30;59.10;;;;;;5113962;28;20115;-69
2022/03/31 05:16:25;;;;;;;32.08;12.90;;;14.30;59.10;;;;;;5099745;28;20473;-69
2022/03/31 05:18:51;;;;;;;21.65;12.75;;;14.40;59.00;;;;;;5134823;27;20031;-69
2022/03/31 05:21:17;;;;;;;23.35;12.80;;;14.40;58.90;;;;;;5134147;27;20050;-69
2022/03/31 05:23:43;;;;;;;19.98;11.85;;;14.40;58.90;;;;;;5115854;27;20417;-70
2022/03/31 05:26:09;;;;;;;23.65;13.30;;;14.40;58.90;;;;;;5134470;27;20046;-68
2022/03/31 05:28:34;;;;;;;24.45;13.40;;;14.50;59.00;;;;;;5127035;27;20017;-69
2022/03/31 05:31:00;;;;;;;20.48;13.20;;;14.50;58.90;;;;;;5110738;28;20036;-69
2022/03/31 05:33:28;;;;;;;23.58;14.18;;;14.50;59.00;;;;;;5114115;28;20421;-69
2022/03/31 05:35:54;;;;;;;20.35;12.77;;;14.60;59.10;;;;;;5095479;28;20379;-69
2022/03/31 05:38:20;;;;;;;20.58;12.95;;;14.60;59.00;;;;;;5113662;28;20031;-68
2022/03/31 05:40:46;;;;;;;19.05;12.60;;;14.60;58.80;;;;;;5113242;27;20134;-69
2022/03/31 05:43:12;;;;;;;21.60;13.07;;;14.70;58.80;;;;;;5133773;27;20027;-69
2022/03/31 05:45:38;;;;;;;20.90;13.10;;;14.70;58.70;;;;;;5114960;27;20031;-69
2022/03/31 05:48:04;;;;;;;23.13;13.55;;;14.70;58.60;;;;;;5134571;27;20027;-70
2022/03/31 05:50:30;;;;;;;24.33;14.48;;;14.80;58.50;;;;;;5115948;27;20106;-69
2022/03/31 05:52:56;;;;;;;18.63;12.18;;;14.80;58.40;;;;;;5133864;27;20023;-69
2022/03/31 05:55:22;;;;;;;21.83;13.25;;;14.80;58.30;;;;;;5112865;28;20080;-69
2022/03/31 05:57:48;;;;;;;24.25;14.52;;;14.80;58.20;;;;;;5115558;27;20023;-69
2022/03/31 06:00:20;;;;;;;30.30;13.88;;;14.90;58.20;;;;;;5115513;27;20059;-69
2022/03/31 06:02:49;;;;;;;22.05;13.73;;;14.90;58.30;;;;;;5108002;28;20027;-69
2022/03/31 06:05:15;;;;;;;23.65;13.20;;;14.90;58.30;;;;;;5115752;28;20113;-69
2022/03/31 06:07:42;;;;;;;22.08;12.75;;;14.90;58.20;;;;;;5133669;28;20034;-69
2022/03/31 06:10:08;;;;;;;23.42;13.68;;;15.00;58.20;;;;;;5115479;28;20127;-69
2022/03/31 06:12:34;;;;;;;20.75;13.50;;;15.00;58.20;;;;;;5134179;28;20018;-69
2022/03/31 06:15:01;;;;;;;22.00;13.25;;;15.00;58.20;;;;;;5133498;28;20474;-70
2022/03/31 06:17:27;;;;;;;23.02;13.73;;;15.00;58.10;;;;;;5115970;28;20038;-69
2022/03/31 06:19:53;;;;;;;28.67;13.60;;;15.10;58.10;;;;;;5112810;28;20031;-69
2022/03/31 06:22:19;;;;;;;20.65;13.25;;;15.00;58.00;;;;;;5130035;28;20401;-69
2022/03/31 06:24:45;;;;;;;22.98;12.90;;;15.10;58.00;;;;;;5115148;28;20115;-69
2022/03/31 06:27:11;;;;;;;20.05;13.02;;;15.10;57.90;;;;;;5114100;28;20145;-70
2022/03/31 06:29:38;;;;;;;27.38;14.77;;;15.10;57.90;;;;;;5105118;28;20035;-69
2022/03/31 06:32:06;;;;;;;25.27;14.57;;;15.10;58.00;;;;;;5132979;28;20034;-69
2022/03/31 06:34:32;;;;;;;27.27;14.02;;;15.10;58.00;;;;;;5115551;28;20034;-69
2022/03/31 06:36:58;;;;;;;23.02;13.68;;;15.10;58.00;;;;;;5129321;28;20104;-69
2022/03/31 06:39:31;;;;;;;25.20;14.80;;;15.10;57.90;;;;;;5132835;28;20078;-69
2022/03/31 06:41:57;;;;;;;28.20;15.73;;;15.10;58.00;;;;;;5114353;28;20057;-69
2022/03/31 06:44:23;;;;;;;38.80;19.55;;;15.10;58.00;;;;;;5132012;28;20458;-69
2022/03/31 06:46:48;;;;;;;30.98;16.50;;;15.10;58.00;;;;;;5133798;28;20030;-70
2022/03/31 06:49:14;;;;;;;28.35;14.35;;;15.10;58.10;;;;;;5115289;28;20408;-69
2022/03/31 06:51:43;;;;;;;22.60;12.65;;;15.10;58.10;;;;;;5133981;28;20102;-69
2022/03/31 06:54:09;;;;;;;26.15;13.32;;;15.10;58.10;;;;;;5111269;28;20382;-69
2022/03/31 06:56:36;;;;;;;26.58;13.32;;;15.20;58.20;;;;;;5113159;28;20451;-69
2022/03/31 06:59:02;;;;;;;27.63;14.40;;;15.20;58.10;;;;;;5132637;28;20470;-70
2022/03/31 07:01:28;;;;;;;26.60;14.57;;;15.20;58.00;;;;;;5109859;28;20024;-69
2022/03/31 07:03:54;;;;;;;23.10;13.63;;;15.30;57.90;;;;;;5122624;28;20378;-70
2022/03/31 07:06:22;;;;;;;23.60;15.00;;;15.30;57.70;;;;;;5128250;28;20028;-70
2022/03/31 07:08:48;;;;;;;27.73;15.00;;;15.40;57.60;;;;;;5129915;28;20027;-70
2022/03/31 07:11:14;;;;;;;24.70;14.60;;;15.40;57.30;;;;;;5107812;28;20034;-70
2022/03/31 07:13:43;;;;;;;26.45;14.23;;;15.40;57.70;;;;;;5124778;27;20038;-69
2022/03/31 07:16:09;;;;;;;21.80;14.23;;;15.40;57.00;;;;;;5117054;27;20034;-69
2022/03/31 07:18:35;;;;;;;22.65;13.50;;;15.40;56.80;;;;;;5114388;27;20382;-69
2022/03/31 07:21:01;;;;;;;25.88;14.60;;;15.50;56.60;;;;;;5108103;27;20079;-70
2022/03/31 07:23:27;;;;;;;27.45;13.88;;;15.50;56.40;;;;;;5129492;27;20035;-69
2022/03/31 07:25:54;;;;;;;19.42;13.48;;;15.50;56.40;;;;;;5126576;27;20020;-70
2022/03/31 07:28:21;;;;;;;28.38;15.48;;;15.40;56.30;;;;;;5108399;27;20023;-69
2022/03/31 07:30:47;;;;;;;23.33;14.27;;;15.40;56.30;;;;;;5126084;27;20474;-69
2022/03/31 07:33:13;;;;;;;29.75;14.75;;;15.40;56.30;;;;;;5121182;27;20110;-69
2022/03/31 07:35:40;;;;;;;25.05;15.48;;;15.40;56.40;;;;;;5108993;27;20080;-69
2022/03/31 07:38:08;;;;;;;22.27;14.38;;;15.40;56.50;;;;;;5136742;27;20423;-69
2022/03/31 07:40:36;;;;;;;21.55;13.48;;;15.30;56.50;;;;;;5134930;27;20051;-68
2022/03/31 07:43:04;;;;;;;33.03;16.42;;;15.30;56.60;;;;;;5118239;27;20095;-69
2022/03/31 07:45:31;;;;;;;25.73;16.15;;;15.30;56.70;;;;;;5130056;27;20023;-70
2022/03/31 07:47:57;;;;;;;32.97;16.33;;;15.30;56.90;;;;;;5117589;27;20049;-70
2022/03/31 07:50:22;;;;;;;29.15;16.67;;;15.30;57.00;;;;;;5116443;27;20477;-69
2022/03/31 07:52:49;;;;;;;25.20;16.38;;;15.30;57.70;;;;;;5117031;27;20035;-70
2022/03/31 07:55:17;;;;;;;37.85;20.35;;;15.30;57.30;;;;;;5136633;27;20646;-69
2022/03/31 07:57:44;;;;;;;34.60;19.83;;;15.30;57.60;;;;;;5136396;27;20038;-69
2022/03/31 08:00:12;;;;;;;39.83;19.52;;;15.30;57.60;;;;;;5102963;27;20095;-70
2022/03/31 08:02:42;;;;;;;32.85;17.35;;;15.30;57.90;;;;;;5135308;27;20027;-70
2022/03/31 08:05:09;;;;;;;30.70;18.52;;;15.30;58.20;;;;;;5117488;27;20031;-70
2022/03/31 08:07:36;;;;;;;33.53;18.20;;;15.30;58.40;;;;;;5113253;27;20023;-69
2022/03/31 08:10:05;;;;;;;30.20;17.45;;;15.30;58.40;;;;;;5129909;27;20513;-69
2022/03/31 08:12:31;;;;;;;32.95;16.73;;;15.30;58.60;;;;;;5133082;27;20469;-71
2022/03/31 08:14:57;;;;;;;31.45;17.38;;;15.30;58.80;;;;;;5125615;27;20509;-70
2022/03/31 08:17:23;;;;;;;28.65;15.15;;;15.30;58.90;;;;;;5115350;27;20027;-70
2022/03/31 08:19:49;;;;;;;32.22;16.23;;;15.30;58.80;;;;;;5111932;27;20494;-70
2022/03/31 08:22:17;;;;;;;25.55;16.10;;;15.30;59.60;;;;;;5133225;27;20063;-70
2022/03/31 08:24:43;;;;;;;29.02;16.23;;;15.30;59.20;;;;;;5130690;27;20469;-69
2022/03/31 08:27:09;;;;;;;28.23;15.80;;;15.30;59.30;;;;;;5135507;27;20078;-70
2022/03/31 08:29:35;;;;;;;28.75;15.77;;;15.30;59.40;;;;;;5130839;27;20546;-69
2022/03/31 08:32:01;;;;;;;25.40;15.80;;;15.30;59.70;;;;;;5142404;27;20115;-70
2022/03/31 08:34:27;;;;;;;26.52;15.02;;;15.30;59.90;;;;;;5133749;27;20499;-70
2022/03/31 08:36:53;;;;;;;24.42;14.45;;;15.30;59.80;;;;;;5128832;27;20030;-69
2022/03/31 08:39:19;;;;;;;22.88;13.52;;;15.30;59.80;;;;;;5127589;27;20048;-70
2022/03/31 08:41:45;;;;;;;21.10;13.60;;;15.30;60.10;;;;;;5097499;27;20059;-70
2022/03/31 08:44:14;;;;;;;27.27;17.58;;;15.30;60.70;;;;;;5127189;27;20035;-70
2022/03/31 08:46:40;;;;;;;27.17;16.35;;;15.40;61.10;;;;;;5128707;27;20031;-69
2022/03/31 08:49:09;;;;;;;24.35;14.93;;;15.40;61.30;;;;;;5135475;27;20367;-70
2022/03/31 08:51:35;;;;;;;23.42;14.77;;;15.50;61.60;;;;;;5116207;27;20418;-70
2022/03/31 08:54:01;;;;;;;30.73;15.63;;;15.60;61.60;;;;;;5134365;27;20062;-69
2022/03/31 08:56:27;;;;;;;29.65;17.48;;;15.60;61.50;;;;;;5116587;27;20118;-68
2022/03/31 08:58:53;;;;;;;33.17;18.08;;;15.70;61.20;;;;;;5098321;28;20458;-68
2022/03/31 09:01:19;;;;;;;37.97;22.30;;;15.80;61.10;;;;;;5114843;27;20063;-67
2022/03/31 09:03:45;;;;;;;36.63;20.80;;;15.80;60.70;;;;;;5122594;27;20038;-68
2022/03/31 09:06:24;;;;;;;40.70;22.95;;;15.90;60.90;;;;;;5105066;28;20030;-68
2022/03/31 09:09:00;;;;;;;32.42;18.92;;;16.00;61.20;;;;;;5129761;27;20019;-69
2022/03/31 09:11:28;;;;;;;38.38;19.05;;;16.10;61.30;;;;;;5114792;28;20056;-68
2022/03/31 09:13:56;;;;;;;35.53;20.98;;;16.20;61.20;;;;;;5114205;28;20035;-68
2022/03/31 09:16:37;;;;;;;42.05;21.90;;;16.20;60.90;;;;;;5114240;28;20020;-68
2022/03/31 09:19:10;;;;;;;33.40;20.48;;;16.30;60.50;;;;;;5114279;28;20118;-68
2022/03/31 09:22:00;;;;;;;40.63;21.40;;;16.40;60.40;;;;;;5114440;28;20024;-67
2022/03/31 09:24:28;;;;;;;28.23;18.42;;;16.50;59.90;;;;;;5114673;27;20031;-67
2022/03/31 09:26:57;;;;;;;37.88;19.77;;;16.50;60.20;;;;;;5116529;27;20024;-68
2022/03/31 09:29:25;;;;;;;33.15;20.00;;;16.60;60.20;;;;;;5116498;27;20226;-68
2022/03/31 09:31:54;;;;;;;33.30;18.40;;;16.60;59.90;;;;;;5115714;27;20039;-68
2022/03/31 09:34:20;;;;;;;35.53;18.35;;;16.60;60.10;;;;;;5115677;27;20479;-68
2022/03/31 09:36:51;;;;;;;33.88;17.42;;;16.70;60.00;;;;;;5115893;27;20030;-68
2022/03/31 09:39:18;;;;;;;27.75;17.63;;;16.70;60.20;;;;;;5134524;27;20050;-68
2022/03/31 09:41:50;;;;;;;28.35;17.42;;;16.80;60.40;;;;;;5132179;27;20070;-69
2022/03/31 09:44:23;;;;;;;32.63;17.77;;;16.80;60.40;;;;;;5096291;28;20077;-68
2022/03/31 09:46:50;;;;;;;27.75;16.83;;;16.80;60.00;;;;;;5114370;27;20080;-68
2022/03/31 09:49:24;;;;;;;25.05;16.55;;;16.80;59.90;;;;;;5111912;27;20027;-69
2022/03/31 09:52:03;;;;;;;29.05;15.60;;;16.80;59.80;;;;;;5115367;27;20664;-68
2022/03/31 09:54:32;;;;;;;27.08;15.60;;;16.90;59.80;;;;;;5134642;27;20035;-69
2022/03/31 09:56:59;;;;;;;22.35;14.95;;;16.90;59.50;;;;;;5134214;27;20106;-69
2022/03/31 09:59:38;;;;;;;23.65;14.73;;;16.90;59.40;;;;;;5128925;27;20051;-68
2022/03/31 10:02:04;;;;;;;21.60;13.57;;;16.90;59.40;;;;;;5120007;27;20431;-68
2022/03/31 10:04:31;;;;;;;22.30;14.13;;;16.90;59.30;;;;;;5115422;28;20039;-68
2022/03/31 10:06:58;;;;;;;22.05;13.68;;;17.00;59.30;;;;;;5114615;28;20038;-68
2022/03/31 10:09:24;;;;;;;21.15;14.32;;;16.90;59.10;;;;;;5134124;28;20071;-68
2022/03/31 10:12:28;;;;;;;23.17;13.77;;;17.00;58.80;;;;;;5123016;28;20028;-68
2022/03/31 10:15:01;;;;;;;23.55;14.07;;;17.00;58.30;;;;;;5125997;28;20054;-68
2022/03/31 10:17:32;;;;;;;23.80;13.60;;;17.00;58.30;;;;;;5117275;28;20348;-68
2022/03/31 10:20:12;;;;;;;19.67;13.05;;;17.00;58.20;;;;;;5119168;28;20034;-68
2022/03/31 10:25:39;;;;;;;18.65;12.75;;;17.10;58.10;;;;;;5134087;28;20031;-68
2022/03/31 10:28:23;;;;;;;21.73;12.65;;;17.10;57.70;;;;;;5115693;28;20034;-67
2022/03/31 10:30:56;;;;;;;18.02;12.65;;;17.10;57.30;;;;;;5133527;28;20088;-68
2022/03/31 10:33:42;;;;;;;23.50;11.93;;;17.20;57.40;;;;;;5114196;28;20067;-67
2022/03/31 10:36:15;;;;;;;15.75;10.50;;;17.30;57.40;;;;;;5128457;28;20044;-67
2022/03/31 10:39:01;;;;;;;15.27;10.70;;;17.40;58.20;;;;;;5133684;28;20054;-68
2022/03/31 10:41:39;;;;;;;15.13;10.95;;;17.60;57.50;;;;;;5134167;28;20034;-68
2022/03/31 10:44:11;;;;;;;14.23;10.15;;;17.80;57.30;;;;;;5129146;28;20046;-68
2022/03/31 10:46:38;;;;;;;20.45;11.40;;;17.90;56.80;;;;;;5113188;28;20051;-68
2022/03/31 10:49:09;;;;;;;15.52;10.23;;;18.00;56.40;;;;;;5125061;27;20023;-68
2022/03/31 10:51:38;;;;;;;13.85;10.07;;;18.10;56.20;;;;;;5119501;27;20023;-67
2022/03/31 10:54:06;;;;;;;16.75;10.45;;;18.20;54.90;;;;;;5133182;27;20590;-67
2022/03/31 10:56:32;;;;;;;18.63;11.45;;;18.30;54.50;;;;;;5128011;27;20346;-68
2022/03/31 10:59:01;;;;;;;17.35;10.80;;;18.40;54.20;;;;;;5137188;27;20471;-68
2022/03/31 11:01:29;;;;;;;15.02;10.05;;;18.50;54.10;;;;;;5125664;27;20028;-68
2022/03/31 11:04:08;;;;;;;14.40;10.05;;;18.50;53.70;;;;;;5137538;27;20063;-68
2022/03/31 11:06:48;;;;;;;12.55;9.57;;;18.50;54.10;;;;;;5137084;27;20458;-67
2022/03/31 11:09:27;;;;;;;15.65;10.70;;;18.50;54.00;;;;;;5121801;27;20027;-68
2022/03/31 11:11:55;;;;;;;14.57;9.32;;;18.50;53.40;;;;;;5116371;28;20072;-68
2022/03/31 11:14:21;;;;;;;15.65;9.48;;;18.60;53.80;;;;;;5116611;27;20052;-68
2022/03/31 11:16:46;;;;;;;15.45;10.73;;;18.70;53.80;;;;;;5116492;28;20035;-67
2022/03/31 11:19:13;;;;;;;16.65;10.85;;;18.80;52.60;;;;;;5116383;28;20028;-68
2022/03/31 11:21:41;;;;;;;14.27;10.05;;;18.80;52.30;;;;;;5136507;27;20114;-68
2022/03/31 11:24:07;;;;;;;14.95;9.73;;;18.80;52.80;;;;;;5136673;27;20031;-68
2022/03/31 11:26:35;;;;;;;13.77;8.70;;;18.80;52.20;;;;;;5136588;27;20019;-68
2022/03/31 11:29:02;;;;;;;10.65;8.45;;;18.80;52.00;;;;;;5136564;27;20015;-67
2022/03/31 11:31:28;;;;;;;11.40;8.02;;;18.70;51.80;;;;;;5136038;27;20064;-68
2022/03/31 11:33:55;;;;;;;10.35;7.90;;;18.60;52.40;;;;;;5118364;27;20027;-67
2022/03/31 11:36:22;;;;;;;12.18;8.88;;;18.50;52.40;;;;;;5118401;27;20023;-67
2022/03/31 11:38:59;;;;;;;13.65;8.82;;;18.40;51.80;;;;;;5117847;27;20023;-68
2022/03/31 11:41:35;;;;;;;15.05;9.65;;;18.20;52.20;;;;;;5128183;27;20059;-68
2022/03/31 11:44:02;;;;;;;12.77;8.68;;;18.10;52.20;;;;;;5105266;28;20044;-68
2022/03/31 11:46:39;;;;;;;16.30;9.10;;;18.00;52.30;;;;;;5111223;28;20026;-67
2022/03/31 11:49:24;;;;;;;13.93;8.52;;;17.90;52.50;;;;;;5129999;27;20035;-67
2022/03/31 11:52:07;;;;;;;;;;;17.70;52.60;;;;;;5137251;27;20366;-67
2022/03/31 11:54:40;;;;;;;13.80;8.82;;;17.70;53.20;;;;;;5118335;27;19952;-67
2022/03/31 11:57:12;;;;;;;13.70;10.10;;;17.60;53.70;;;;;;5136452;27;20019;-67
2022/03/31 11:59:38;;;;;;;19.33;13.77;;;17.40;54.10;;;;;;5104119;28;20390;-67
2022/03/31 12:02:17;;;;;;;25.33;15.68;;;17.30;53.90;;;;;;5125094;27;20054;-67
2022/03/31 12:04:45;;;;;;;23.45;16.10;;;17.20;54.10;;;;;;5108509;27;20387;-67
2022/03/31 12:07:11;;;;;;;28.60;18.60;;;17.10;54.10;;;;;;5114634;28;20050;-67
2022/03/31 12:09:42;;;;;;;30.70;19.88;;;16.90;54.20;;;;;;5114582;28;20038;-67
2022/03/31 12:12:15;;;;;;;31.60;20.25;;;16.80;54.50;;;;;;5115881;28;20103;-67
2022/03/31 12:14:53;;;;;;;33.47;19.45;;;16.70;55.00;;;;;;5115894;28;20020;-67
2022/03/31 12:17:19;;;;;;;30.65;20.52;;;16.60;55.40;;;;;;5114442;28;20019;-67
2022/03/31 12:19:45;;;;;;;31.25;19.77;;;16.50;55.50;;;;;;5135563;27;20021;-67
2022/03/31 12:22:11;;;;;;;29.23;19.95;;;16.40;55.60;;;;;;5135941;27;20370;-67
2022/03/31 12:24:51;;;;;;;30.60;19.00;;;16.30;55.60;;;;;;5136033;27;20023;-67
2022/03/31 12:27:18;;;;;;;25.92;17.23;;;16.20;55.90;;;;;;5136112;27;20015;-68
2022/03/31 12:29:45;;;;;;;26.52;17.08;;;16.20;56.00;;;;;;5117590;27;20042;-67
2022/03/31 12:32:13;;;;;;;24.85;17.10;;;16.20;56.20;;;;;;5117133;27;20042;-67
2022/03/31 12:34:53;;;;;;;28.13;17.52;;;16.10;56.40;;;;;;5117415;27;20356;-66
2022/03/31 12:37:30;;;;;;;27.60;16.80;;;16.10;56.00;;;;;;5135915;27;20358;-67